Terminal Aerodrome Forecast
Issued by NWS

Home | Current Version | Previous Version | Text Only | Print | Product List | Glossary On
Versions: 1 2 3 4 5 6 7 8 9 10 11 12 13 14 15 16 17 18 19 20 21 22 23 24 25 26
702
FTUS42 KKEY 032118 AAB
TAFMTH
TAF AMD
KMTH 032118Z 0321/0418 08011G19KT P6SM SCT019 SCT060
      TEMPO 0321/0324 BKN024
     FM040100 08009G16KT P6SM SCT028=

USA.gov is the U.S. government's official web portal to all federal, state and local government web resources and services.